メルボルン の空港の天気 - METARとTAF

メルボルン空港 ( YMML / MEL ) - オーストラリア ビクトリア州、Melbourne Airport
飛行場実況気象(Metar)
観測時間06/24 19:30 AEST (06/24 09:30 UTC)
風向・風速北 3m/s
視程10km以上
天気現象
なし
気温6℃
湿度93%
気圧1033hPa
METARYMML 240930Z 35005KT CAVOK 06/05 Q1033 NOSIG
過去の天気等 Google飛行場航空写真 Wunderground天気予報

過去48時間のMETAR

飛行場予報(TAF)
発表時間: 6/24 15:09 AEST (6/24 05:09 UTC)
予報対象時間: 24日16時 AEST ~ 25日22時 AEST
風向・風速北北東 4m/s
視程10km以上
なし
TAF YMML 240509Z 2406/2512 02008KT CAVOK